Time;durP1;ratioP1;P1;durP2;ratioP2;P2;SDS_P1;SDS_P2;PMS_P1;PMS_P2;Temp;Humidity;BMP_temperature;BMP_pressure;BME280_temperature;BME280_humidity;BME280_pressure;Samples;Min_cycle;Max_cycle;Signal;HPM_P1;HPM_P2
2021/09/03 00:01:13;;;;;;;3.80;2.97;;;23.70;46.80;;;;;;4167082;28;20723;-46
2021/09/03 00:03:15;;;;;;;3.60;3.00;;;23.70;47.10;;;;;;4166754;28;20050;-45
2021/09/03 00:05:19;;;;;;;5.95;3.30;;;23.70;47.00;;;;;;4166842;28;20048;-46
2021/09/03 00:07:21;;;;;;;4.80;3.22;;;23.70;46.80;;;;;;4166908;28;20046;-44
2021/09/03 00:09:23;;;;;;;3.90;3.05;;;23.70;46.90;;;;;;4166762;28;20041;-45
2021/09/03 00:11:25;;;;;;;4.57;3.13;;;23.60;46.90;;;;;;4166723;28;20605;-47
2021/09/03 00:13:27;;;;;;;4.03;3.00;;;23.60;46.90;;;;;;4166777;28;20042;-46
2021/09/03 00:15:29;;;;;;;4.05;3.03;;;23.70;46.90;;;;;;4166754;28;20069;-43
2021/09/03 00:17:31;;;;;;;4.38;3.47;;;23.70;47.00;;;;;;4166673;28;20050;-44
2021/09/03 00:19:33;;;;;;;6.13;3.10;;;23.60;46.70;;;;;;4166657;28;20141;-45
2021/09/03 00:21:35;;;;;;;6.55;2.95;;;23.60;46.90;;;;;;4166554;28;20086;-46
2021/09/03 00:23:38;;;;;;;5.25;2.55;;;23.70;46.60;;;;;;4165912;28;20094;-45
2021/09/03 00:25:40;;;;;;;5.40;3.13;;;23.70;46.60;;;;;;4166692;28;20049;-46
2021/09/03 00:27:42;;;;;;;4.13;2.90;;;23.60;46.70;;;;;;4166343;28;20065;-44
2021/09/03 00:29:44;;;;;;;6.32;3.25;;;23.60;46.60;;;;;;4165339;28;20109;-47
2021/09/03 00:31:45;;;;;;;3.05;2.63;;;23.60;46.50;;;;;;4165896;28;20049;-45
2021/09/03 00:33:47;;;;;;;6.18;2.90;;;23.60;46.90;;;;;;4166273;28;20056;-46
2021/09/03 00:35:49;;;;;;;3.00;2.35;;;23.60;46.50;;;;;;4166264;28;20088;-44
2021/09/03 00:37:51;;;;;;;4.60;3.33;;;23.60;46.50;;;;;;4166310;28;20046;-45
2021/09/03 00:39:53;;;;;;;3.15;2.70;;;23.60;46.80;;;;;;4166309;28;20050;-44
2021/09/03 00:41:55;;;;;;;3.38;2.20;;;23.70;46.40;;;;;;4166359;28;20057;-46
2021/09/03 00:43:57;;;;;;;3.15;2.65;;;23.60;46.60;;;;;;4166473;28;20042;-47
2021/09/03 00:45:59;;;;;;;5.78;2.95;;;23.60;46.50;;;;;;4166386;28;20097;-46
2021/09/03 00:48:01;;;;;;;3.88;2.47;;;23.60;46.30;;;;;;4166120;28;20103;-45
2021/09/03 00:50:05;;;;;;;2.85;2.40;;;23.60;46.40;;;;;;4166064;28;20048;-45
2021/09/03 00:52:08;;;;;;;3.45;2.55;;;23.60;46.60;;;;;;4166195;28;20042;-45
2021/09/03 00:54:10;;;;;;;3.92;3.10;;;23.60;46.40;;;;;;4166059;28;20042;-45
2021/09/03 00:56:12;;;;;;;3.95;2.70;;;23.60;46.30;;;;;;4165056;28;20100;-46
2021/09/03 00:58:14;;;;;;;3.60;2.85;;;23.60;46.40;;;;;;4166181;28;20052;-47
2021/09/03 01:00:16;;;;;;;3.97;2.55;;;23.60;46.50;;;;;;4165902;28;20050;-46
2021/09/03 01:02:18;;;;;;;4.15;2.85;;;23.60;46.80;;;;;;4165935;28;20044;-46
2021/09/03 01:04:21;;;;;;;6.53;2.47;;;23.70;46.40;;;;;;4164998;28;20042;-46
2021/09/03 01:06:24;;;;;;;3.83;2.50;;;23.60;46.60;;;;;;4165748;28;20510;-45
2021/09/03 01:08:26;;;;;;;4.45;2.83;;;23.60;46.30;;;;;;4165724;28;20050;-46
2021/09/03 01:10:28;;;;;;;4.07;2.55;;;23.60;46.10;;;;;;4165655;28;20042;-48
2021/09/03 01:12:30;;;;;;;2.97;2.40;;;23.60;46.30;;;;;;4165788;28;20042;-48
2021/09/03 01:14:32;;;;;;;4.47;2.60;;;23.60;46.40;;;;;;4165681;28;20046;-48
2021/09/03 01:16:34;;;;;;;3.95;2.70;;;23.60;46.30;;;;;;4165671;28;20054;-46
2021/09/03 01:18:36;;;;;;;3.53;2.90;;;23.60;46.40;;;;;;4165559;28;20109;-46
2021/09/03 01:20:38;;;;;;;4.32;2.78;;;23.60;46.40;;;;;;4165670;28;20046;-45
2021/09/03 01:22:40;;;;;;;2.90;2.35;;;23.60;46.20;;;;;;4165780;28;20038;-45
2021/09/03 01:24:42;;;;;;;4.30;2.47;;;23.60;46.40;;;;;;4165766;28;20116;-45
2021/09/03 01:26:45;;;;;;;2.28;2.08;;;23.60;46.60;;;;;;4165582;28;20054;-46
2021/09/03 01:28:48;;;;;;;4.82;2.40;;;23.60;46.30;;;;;;4165585;28;20050;-45
2021/09/03 01:30:50;;;;;;;2.63;2.38;;;23.60;46.30;;;;;;4165543;28;20049;-45
2021/09/03 01:32:51;;;;;;;3.25;2.70;;;23.60;46.30;;;;;;4165630;28;20053;-47
2021/09/03 01:34:53;;;;;;;3.58;2.60;;;23.60;46.40;;;;;;4165006;28;20049;-46
2021/09/03 01:36:55;;;;;;;3.22;2.40;;;23.60;46.50;;;;;;4165166;28;20048;-46
2021/09/03 01:38:59;;;;;;;3.80;2.40;;;23.60;46.60;;;;;;4165568;28;20041;-45
2021/09/03 01:41:01;;;;;;;3.33;2.47;;;23.50;46.20;;;;;;4165498;28;20042;-46
2021/09/03 01:43:03;;;;;;;2.90;2.40;;;23.50;46.30;;;;;;4165398;28;20052;-46
2021/09/03 01:45:06;;;;;;;3.60;2.45;;;23.60;46.10;;;;;;4165549;28;20065;-46
2021/09/03 01:47:08;;;;;;;3.13;2.30;;;23.60;46.30;;;;;;4165214;28;20072;-45
2021/09/03 01:49:10;;;;;;;4.03;2.38;;;23.60;46.30;;;;;;4165081;28;20037;-45
2021/09/03 01:51:12;;;;;;;3.67;2.45;;;23.60;46.40;;;;;;4165298;28;20079;-45
2021/09/03 01:53:14;;;;;;;4.10;2.50;;;23.60;46.20;;;;;;4165501;28;20045;-46
2021/09/03 01:55:16;;;;;;;5.55;2.70;;;23.60;46.40;;;;;;4165407;28;20054;-46
2021/09/03 01:57:19;;;;;;;7.55;2.70;;;23.50;46.10;;;;;;4165335;28;20441;-45
2021/09/03 01:59:21;;;;;;;5.63;2.63;;;23.50;46.40;;;;;;4164462;28;20049;-45
2021/09/03 02:01:23;;;;;;;3.60;2.72;;;23.50;46.20;;;;;;4165251;28;20046;-44
2021/09/03 02:03:26;;;;;;;3.75;2.30;;;23.60;46.40;;;;;;4164907;28;20447;-44
2021/09/03 02:05:28;;;;;;;4.63;2.60;;;23.50;46.30;;;;;;4165121;28;20102;-45
2021/09/03 02:07:29;;;;;;;3.53;2.10;;;23.50;46.20;;;;;;4165038;28;20080;-46
2021/09/03 02:09:31;;;;;;;2.30;2.10;;;23.50;46.30;;;;;;4165019;28;20120;-45
2021/09/03 02:11:34;;;;;;;5.35;2.42;;;23.50;46.20;;;;;;4165066;28;20109;-44
2021/09/03 02:13:36;;;;;;;3.65;2.58;;;23.60;46.20;;;;;;4165171;28;20073;-45
2021/09/03 02:15:38;;;;;;;8.13;2.60;;;23.60;46.30;;;;;;4165134;28;20046;-45
2021/09/03 02:17:41;;;;;;;3.60;2.15;;;23.60;46.10;;;;;;4164973;28;20065;-46
2021/09/03 02:19:43;;;;;;;3.03;2.20;;;23.50;46.20;;;;;;4164983;28;20056;-44
2021/09/03 02:21:45;;;;;;;3.92;3.10;;;23.50;46.40;;;;;;4164952;28;20052;-45
2021/09/03 02:23:47;;;;;;;3.42;2.50;;;23.50;46.30;;;;;;4165094;28;20103;-47
2021/09/03 02:25:49;;;;;;;3.90;2.70;;;23.50;46.20;;;;;;4164948;28;20102;-45
2021/09/03 02:27:50;;;;;;;3.88;2.53;;;23.50;46.20;;;;;;4164964;28;20037;-45
2021/09/03 02:29:52;;;;;;;2.75;2.22;;;23.50;46.30;;;;;;4164998;28;20046;-46
2021/09/03 02:31:55;;;;;;;3.60;2.42;;;23.50;46.30;;;;;;4164847;28;20042;-45
2021/09/03 02:33:57;;;;;;;3.05;2.22;;;23.60;46.20;;;;;;4164733;28;20081;-47
2021/09/03 02:35:59;;;;;;;2.92;2.35;;;23.50;46.30;;;;;;4165124;28;20478;-46
2021/09/03 02:38:01;;;;;;;3.28;2.40;;;23.50;46.20;;;;;;4164910;28;20108;-45
2021/09/03 02:40:04;;;;;;;3.17;2.15;;;23.50;46.50;;;;;;4165045;28;20053;-44
2021/09/03 02:42:06;;;;;;;2.97;2.45;;;23.50;46.30;;;;;;4164811;28;20049;-45
2021/09/03 02:44:08;;;;;;;3.05;2.20;;;23.50;46.30;;;;;;4164884;28;20068;-47
2021/09/03 02:46:10;;;;;;;3.25;2.28;;;23.50;46.30;;;;;;4164795;28;20042;-45
2021/09/03 02:48:12;;;;;;;3.95;2.70;;;23.50;46.60;;;;;;4167790;28;20072;-45
2021/09/03 02:50:14;;;;;;;4.25;2.92;;;23.50;46.40;;;;;;4168106;28;20044;-44
2021/09/03 02:52:16;;;;;;;6.07;2.38;;;23.50;46.40;;;;;;4168051;28;20062;-48
2021/09/03 02:54:18;;;;;;;3.55;2.67;;;23.50;46.40;;;;;;4168078;28;20105;-43
2021/09/03 02:56:20;;;;;;;6.20;2.60;;;23.50;46.30;;;;;;4167939;28;20056;-45
2021/09/03 02:58:22;;;;;;;4.50;2.70;;;23.50;46.30;;;;;;4167780;28;20046;-45
2021/09/03 03:00:25;;;;;;;2.63;2.00;;;23.50;46.20;;;;;;4167916;28;20105;-44
2021/09/03 03:02:27;;;;;;;3.70;2.28;;;23.50;46.40;;;;;;4167750;28;20042;-47
2021/09/03 03:04:29;;;;;;;3.20;2.28;;;23.50;46.30;;;;;;4167576;28;20098;-45
2021/09/03 03:06:31;;;;;;;3.78;2.92;;;23.50;46.30;;;;;;4167736;28;20045;-45
2021/09/03 03:08:33;;;;;;;5.10;2.70;;;23.50;46.40;;;;;;4167796;28;20099;-45
2021/09/03 03:10:35;;;;;;;3.05;2.10;;;23.50;46.30;;;;;;4166791;28;20077;-44
2021/09/03 03:12:37;;;;;;;3.72;2.42;;;23.50;46.50;;;;;;4167565;28;20046;-45
2021/09/03 03:14:39;;;;;;;5.57;2.70;;;23.50;46.40;;;;;;4167676;28;20045;-43
2021/09/03 03:16:41;;;;;;;5.40;2.45;;;23.50;46.30;;;;;;4167698;28;20103;-45
2021/09/03 03:18:43;;;;;;;4.82;2.50;;;23.50;46.40;;;;;;4167592;28;20057;-46
2021/09/03 03:20:47;;;;;;;5.57;2.88;;;23.50;46.30;;;;;;4167572;28;20045;-44
2021/09/03 03:22:49;;;;;;;4.10;2.50;;;23.50;46.20;;;;;;4167538;28;20085;-44
2021/09/03 03:24:51;;;;;;;3.60;2.55;;;23.50;46.30;;;;;;4167508;28;20321;-44
2021/09/03 03:26:53;;;;;;;5.82;2.65;;;23.50;46.20;;;;;;4167289;28;20042;-44
2021/09/03 03:28:58;;;;;;;3.20;2.13;;;23.50;46.30;;;;;;4166571;28;20042;-45
2021/09/03 03:31:00;;;;;;;2.85;2.42;;;23.50;46.30;;;;;;4167477;28;20069;-44
2021/09/03 03:33:02;;;;;;;5.35;2.72;;;23.50;46.20;;;;;;4167072;28;20041;-46
2021/09/03 03:35:05;;;;;;;3.45;2.70;;;23.50;46.40;;;;;;4167291;28;20054;-45
2021/09/03 03:37:08;;;;;;;3.50;2.50;;;23.50;46.40;;;;;;4167221;28;20065;-45
2021/09/03 03:39:10;;;;;;;3.40;2.42;;;23.40;46.20;;;;;;4167315;28;20105;-44
2021/09/03 03:41:12;;;;;;;3.17;2.42;;;23.50;46.30;;;;;;4166289;28;20046;-47
2021/09/03 03:43:15;;;;;;;10.68;2.20;;;23.50;46.40;;;;;;4166887;28;20096;-45
2021/09/03 03:45:17;;;;;;;3.15;2.65;;;23.40;46.20;;;;;;4166051;28;20056;-47
2021/09/03 03:47:19;;;;;;;4.72;2.40;;;23.50;46.40;;;;;;4166782;28;20044;-44
2021/09/03 03:49:21;;;;;;;5.32;3.30;;;23.40;46.30;;;;;;4167170;28;20046;-47
2021/09/03 03:51:23;;;;;;;4.60;2.50;;;23.40;46.30;;;;;;4166801;28;20066;-47
2021/09/03 03:53:25;;;;;;;3.03;2.55;;;23.40;46.20;;;;;;4166595;28;20384;-49
2021/09/03 03:55:27;;;;;;;3.85;2.35;;;23.40;46.30;;;;;;4166929;28;20137;-47
2021/09/03 03:57:29;;;;;;;7.00;3.08;;;23.40;46.40;;;;;;4166839;28;20167;-50
2021/09/03 03:59:31;;;;;;;4.18;2.35;;;23.50;46.40;;;;;;4166150;28;20105;-49
2021/09/03 04:01:34;;;;;;;4.43;2.88;;;23.40;46.30;;;;;;4167027;28;20128;-48
2021/09/03 04:03:37;;;;;;;4.87;2.73;;;23.40;46.40;;;;;;4166772;28;20061;-50
2021/09/03 04:05:39;;;;;;;5.53;3.00;;;23.40;46.50;;;;;;4166869;28;20283;-46
2021/09/03 04:07:41;;;;;;;4.57;2.75;;;23.50;46.40;;;;;;4166843;28;20037;-45
2021/09/03 04:09:43;;;;;;;6.25;3.00;;;23.40;46.30;;;;;;4166753;28;20097;-50
2021/09/03 04:11:47;;;;;;;4.50;3.00;;;23.40;46.30;;;;;;4166653;28;20101;-48
2021/09/03 04:13:49;;;;;;;7.30;3.63;;;23.50;46.30;;;;;;4166739;28;20068;-47
2021/09/03 04:15:51;;;;;;;6.50;3.22;;;23.40;46.20;;;;;;4165718;28;20058;-46
2021/09/03 04:17:53;;;;;;;6.30;3.10;;;23.50;46.30;;;;;;4166675;28;20038;-50
2021/09/03 04:19:55;;;;;;;3.50;2.67;;;23.50;46.50;;;;;;4166561;28;20042;-48
2021/09/03 04:21:57;;;;;;;4.40;2.78;;;23.40;46.30;;;;;;4166610;28;20037;-49
2021/09/03 04:23:59;;;;;;;7.13;2.92;;;23.50;46.50;;;;;;4166422;28;20046;-47
2021/09/03 04:26:01;;;;;;;6.13;3.08;;;23.40;46.50;;;;;;4166561;28;20098;-44
2021/09/03 04:28:03;;;;;;;5.72;3.17;;;23.40;46.50;;;;;;4165570;28;20061;-48
2021/09/03 04:30:06;;;;;;;3.83;2.63;;;23.50;46.50;;;;;;4166357;28;20077;-46
2021/09/03 04:32:08;;;;;;;4.35;2.88;;;23.40;46.50;;;;;;4166298;28;20133;-45
2021/09/03 04:34:10;;;;;;;5.40;2.97;;;23.40;46.40;;;;;;4166478;28;20077;-45
2021/09/03 04:36:12;;;;;;;7.07;3.10;;;23.40;46.60;;;;;;4166466;28;20045;-48
2021/09/03 04:38:14;;;;;;;6.80;3.08;;;23.40;46.60;;;;;;4166291;28;20056;-44
2021/09/03 04:40:17;;;;;;;3.50;2.85;;;23.40;46.60;;;;;;4166203;28;20070;-44
2021/09/03 04:42:19;;;;;;;5.75;3.28;;;23.40;46.50;;;;;;4166467;28;20081;-47
2021/09/03 04:44:21;;;;;;;5.20;2.85;;;23.40;46.60;;;;;;4166331;28;20045;-49
2021/09/03 04:46:23;;;;;;;4.72;2.88;;;23.40;46.60;;;;;;4166306;28;20034;-47
2021/09/03 04:48:25;;;;;;;7.82;3.50;;;23.40;46.50;;;;;;4165660;28;20077;-50
2021/09/03 04:50:27;;;;;;;7.22;3.13;;;23.40;46.50;;;;;;4166226;28;20046;-47
2021/09/03 04:52:29;;;;;;;5.95;2.97;;;23.40;46.40;;;;;;4166033;28;20038;-45
2021/09/03 04:54:31;;;;;;;5.43;3.63;;;23.40;46.70;;;;;;4166166;28;20105;-45
2021/09/03 04:56:33;;;;;;;4.40;3.00;;;23.40;46.70;;;;;;4166088;28;20118;-46
2021/09/03 04:58:36;;;;;;;5.80;3.63;;;23.40;46.60;;;;;;4166362;28;20046;-46
2021/09/03 05:00:37;;;;;;;8.48;3.50;;;23.40;46.60;;;;;;4166138;28;20081;-45
2021/09/03 05:02:40;;;;;;;9.68;3.58;;;23.40;46.60;;;;;;4165769;28;20052;-47
2021/09/03 05:04:42;;;;;;;6.70;4.13;;;23.40;46.70;;;;;;4165913;28;20069;-48
2021/09/03 05:06:44;;;;;;;6.93;3.63;;;23.40;46.60;;;;;;4165958;28;20053;-45
2021/09/03 05:08:46;;;;;;;4.35;3.28;;;23.40;46.60;;;;;;4165956;28;20061;-49
2021/09/03 05:10:48;;;;;;;6.82;3.80;;;23.40;46.80;;;;;;4165779;28;20109;-49
2021/09/03 05:12:50;;;;;;;5.43;3.47;;;23.40;46.70;;;;;;4165865;28;20102;-45
2021/09/03 05:14:52;;;;;;;7.97;4.57;;;23.40;46.80;;;;;;4165846;28;20834;-47
2021/09/03 05:16:54;;;;;;;7.75;4.10;;;23.40;46.80;;;;;;4165783;28;20073;-44
2021/09/03 05:18:56;;;;;;;5.85;3.75;;;23.40;46.70;;;;;;4165709;28;20076;-45
2021/09/03 05:20:58;;;;;;;7.20;4.63;;;23.40;46.80;;;;;;4165246;28;20056;-47
2021/09/03 05:23:00;;;;;;;7.18;4.43;;;23.40;46.70;;;;;;4165273;28;20053;-44
2021/09/03 05:25:03;;;;;;;7.13;4.20;;;23.40;46.70;;;;;;4165361;28;20070;-46
2021/09/03 05:27:06;;;;;;;8.80;4.55;;;23.40;46.80;;;;;;4165447;28;20037;-48
2021/09/03 05:29:08;;;;;;;9.77;4.35;;;23.40;46.90;;;;;;4165484;28;20120;-47
2021/09/03 05:31:10;;;;;;;6.80;4.35;;;23.40;46.90;;;;;;4165238;28;20049;-45
2021/09/03 05:33:12;;;;;;;9.55;4.18;;;23.40;46.80;;;;;;4165300;28;20048;-47
2021/09/03 05:35:14;;;;;;;5.97;4.03;;;23.50;46.80;;;;;;4165444;28;20106;-44
2021/09/03 05:37:16;;;;;;;6.07;3.70;;;23.40;46.90;;;;;;4165526;28;20052;-45
2021/09/03 05:39:18;;;;;;;5.45;3.20;;;23.40;46.80;;;;;;4165334;28;20101;-44
2021/09/03 05:41:20;;;;;;;6.20;3.90;;;23.40;46.90;;;;;;4165164;28;20775;-44
2021/09/03 05:43:22;;;;;;;4.35;3.17;;;23.40;46.80;;;;;;4165137;28;20096;-45
2021/09/03 05:45:24;;;;;;;6.75;4.05;;;23.40;46.90;;;;;;4165165;28;20065;-46
2021/09/03 05:47:26;;;;;;;5.45;3.45;;;23.40;47.00;;;;;;4164698;28;20054;-45
2021/09/03 05:49:28;;;;;;;6.25;4.03;;;23.40;46.80;;;;;;4165351;28;20066;-44
2021/09/03 05:51:30;;;;;;;6.38;4.05;;;23.50;47.00;;;;;;4165128;28;20052;-44
2021/09/03 05:53:32;;;;;;;4.93;3.00;;;23.40;47.00;;;;;;4165001;28;20042;-45
2021/09/03 05:55:34;;;;;;;6.70;3.20;;;23.50;47.00;;;;;;4165224;28;20050;-44
2021/09/03 05:57:36;;;;;;;6.63;3.80;;;23.40;46.80;;;;;;4165375;28;20106;-44
2021/09/03 05:59:38;;;;;;;8.60;3.97;;;23.40;46.90;;;;;;4165241;28;20056;-45
2021/09/03 06:01:40;;;;;;;6.95;3.58;;;23.40;46.90;;;;;;4165142;28;20054;-45
2021/09/03 06:03:42;;;;;;;5.65;3.35;;;23.40;46.70;;;;;;4165289;28;20042;-45
2021/09/03 06:05:44;;;;;;;8.27;3.05;;;23.50;47.00;;;;;;4165121;28;20461;-45
2021/09/03 06:07:46;;;;;;;6.43;3.17;;;23.40;46.80;;;;;;4165076;28;20106;-46
2021/09/03 06:09:49;;;;;;;6.32;3.35;;;23.40;46.80;;;;;;4165273;28;20037;-44
2021/09/03 06:11:54;;;;;;;5.03;2.60;;;23.40;46.90;;;;;;4165333;28;20046;-44
2021/09/03 06:13:56;;;;;;;3.90;2.95;;;23.50;46.80;;;;;;4165399;28;20073;-45
2021/09/03 06:15:58;;;;;;;6.80;3.15;;;23.40;46.60;;;;;;4165030;28;20121;-46
2021/09/03 06:18:00;;;;;;;4.60;2.88;;;23.40;46.80;;;;;;4165017;28;20046;-44
2021/09/03 06:20:07;;;;;;;5.72;3.25;;;23.50;46.70;;;;;;4180551;28;20045;-45
2021/09/03 06:22:09;;;;;;;3.90;2.83;;;23.50;46.90;;;;;;4166595;28;20099;-44
2021/09/03 06:24:32;;;;;;;5.53;3.30;;;23.50;46.70;;;;;;4168472;28;20128;-45
2021/09/03 06:26:34;;;;;;;5.22;3.40;;;23.40;46.80;;;;;;4168476;28;20110;-45
2021/09/03 06:28:36;;;;;;;5.40;3.10;;;23.50;46.70;;;;;;4168473;28;20054;-44
2021/09/03 06:30:39;;;;;;;4.20;3.10;;;23.50;46.90;;;;;;4168295;28;20042;-46
2021/09/03 06:32:41;;;;;;;4.30;2.42;;;23.50;46.80;;;;;;4168275;28;20069;-46
2021/09/03 06:35:03;;;;;;;5.18;2.97;;;23.50;46.70;;;;;;4168207;28;20056;-44
2021/09/03 06:37:07;;;;;;;4.38;3.20;;;23.40;46.40;;;;;;4168343;28;20069;-46
2021/09/03 06:39:09;;;;;;;5.85;2.85;;;23.50;46.60;;;;;;4167178;28;20057;-46
2021/09/03 06:41:11;;;;;;;4.97;2.83;;;23.40;46.60;;;;;;4168172;28;20559;-45
2021/09/03 06:43:12;;;;;;;3.92;2.75;;;23.50;46.40;;;;;;4168304;28;20042;-45
2021/09/03 06:45:15;;;;;;;5.00;3.08;;;23.50;46.40;;;;;;4167968;28;20101;-46
2021/09/03 06:47:17;;;;;;;4.85;2.47;;;23.50;46.50;;;;;;4167877;28;20061;-46
2021/09/03 06:49:19;;;;;;;3.33;2.58;;;23.50;46.60;;;;;;4168212;28;20124;-45
2021/09/03 06:51:21;;;;;;;6.30;2.67;;;23.50;46.70;;;;;;4167922;28;20097;-45
2021/09/03 06:53:24;;;;;;;5.10;2.53;;;23.40;46.30;;;;;;4168025;28;20102;-45
2021/09/03 06:55:26;;;;;;;5.18;2.65;;;23.40;46.40;;;;;;4183540;28;20113;-45
2021/09/03 06:57:29;;;;;;;3.13;2.63;;;23.40;46.40;;;;;;4166967;28;20399;-45
2021/09/03 06:59:31;;;;;;;5.90;3.22;;;23.50;46.60;;;;;;4168026;28;20042;-45
2021/09/03 07:01:33;;;;;;;4.82;2.60;;;23.50;46.80;;;;;;4167277;28;20052;-45
2021/09/03 07:03:35;;;;;;;3.60;2.40;;;23.50;46.50;;;;;;4167895;28;20060;-46
2021/09/03 07:05:37;;;;;;;3.92;2.78;;;23.50;46.30;;;;;;4167703;28;20403;-44
2021/09/03 07:07:40;;;;;;;4.30;2.92;;;23.50;46.70;;;;;;4167875;28;20074;-43
2021/09/03 07:09:42;;;;;;;7.00;3.38;;;23.50;46.60;;;;;;4167795;28;20046;-44
2021/09/03 07:11:44;;;;;;;4.38;2.28;;;23.50;46.50;;;;;;4166883;28;20046;-47
2021/09/03 07:13:46;;;;;;;6.40;2.67;;;23.50;46.40;;;;;;4167606;28;20045;-44
2021/09/03 07:15:48;;;;;;;3.88;2.47;;;23.50;46.40;;;;;;4167356;28;20052;-43
2021/09/03 07:17:50;;;;;;;7.03;2.95;;;23.50;46.60;;;;;;4167609;28;20092;-43
2021/09/03 07:19:52;;;;;;;4.47;3.10;;;23.50;46.90;;;;;;4166645;28;20113;-44
2021/09/03 07:21:54;;;;;;;4.38;3.03;;;23.50;46.60;;;;;;4167623;28;20050;-44
2021/09/03 07:23:56;;;;;;;4.25;2.70;;;23.50;46.40;;;;;;4167715;28;20101;-43
2021/09/03 07:26:01;;;;;;;3.55;2.42;;;23.50;46.60;;;;;;4182971;28;20045;-43
2021/09/03 07:28:03;;;;;;;3.35;2.40;;;23.50;46.50;;;;;;4167635;28;20129;-43
2021/09/03 07:30:05;;;;;;;4.55;2.92;;;23.50;46.50;;;;;;4167454;28;20041;-44
2021/09/03 07:32:07;;;;;;;3.65;2.53;;;23.50;46.40;;;;;;4167530;28;20052;-45
2021/09/03 07:34:09;;;;;;;4.00;2.45;;;23.40;46.40;;;;;;4166257;28;20044;-45
2021/09/03 07:36:11;;;;;;;3.40;2.50;;;23.50;46.30;;;;;;4167541;28;20052;-46
2021/09/03 07:38:15;;;;;;;5.93;2.88;;;23.50;46.50;;;;;;4167306;28;20068;-44
2021/09/03 07:40:17;;;;;;;5.30;2.88;;;23.50;46.60;;;;;;4167333;28;20081;-43
2021/09/03 07:42:19;;;;;;;4.35;2.75;;;23.50;46.20;;;;;;4167450;28;20153;-44
2021/09/03 07:44:21;;;;;;;5.03;2.45;;;23.50;46.30;;;;;;4167213;28;20120;-43
2021/09/03 07:46:23;;;;;;;5.45;2.83;;;23.50;46.50;;;;;;4167185;28;20037;-44
2021/09/03 07:48:25;;;;;;;5.07;2.60;;;23.50;46.60;;;;;;4166874;28;20057;-45
2021/09/03 07:50:28;;;;;;;3.78;2.65;;;23.50;46.30;;;;;;4167197;28;20045;-44
2021/09/03 07:52:30;;;;;;;4.55;3.00;;;23.50;46.70;;;;;;4166114;28;20050;-46
2021/09/03 07:54:32;;;;;;;5.90;3.20;;;23.50;46.70;;;;;;4167084;28;20107;-45
2021/09/03 07:56:34;;;;;;;3.95;2.80;;;23.50;46.70;;;;;;4167112;28;20056;-45
2021/09/03 07:58:36;;;;;;;4.18;2.42;;;23.50;46.90;;;;;;4167157;28;20057;-45
2021/09/03 08:00:38;;;;;;;6.22;2.67;;;23.50;46.50;;;;;;4166887;28;20053;-47
2021/09/03 08:02:40;;;;;;;4.88;2.70;;;23.50;46.80;;;;;;4166866;28;20061;-48
2021/09/03 08:04:42;;;;;;;3.92;2.67;;;23.50;46.80;;;;;;4166777;28;20045;-45
2021/09/03 08:06:44;;;;;;;4.28;3.05;;;23.50;46.80;;;;;;4167049;28;20101;-47
2021/09/03 08:08:46;;;;;;;4.28;2.55;;;23.50;46.80;;;;;;4167091;28;20101;-45
2021/09/03 08:10:49;;;;;;;9.18;3.38;;;23.50;46.80;;;;;;4166904;28;20046;-45
2021/09/03 08:12:51;;;;;;;5.95;2.58;;;23.50;46.60;;;;;;4165815;28;20113;-45
2021/09/03 08:14:53;;;;;;;3.53;2.33;;;23.50;46.40;;;;;;4166821;28;20105;-46
2021/09/03 08:16:55;;;;;;;3.47;2.22;;;23.50;46.80;;;;;;4166845;28;20102;-46
2021/09/03 08:18:57;;;;;;;4.03;2.60;;;23.50;46.90;;;;;;4166901;28;20121;-46
2021/09/03 08:20:59;;;;;;;3.95;2.67;;;23.50;46.90;;;;;;4166694;28;20101;-46
2021/09/03 08:23:03;;;;;;;4.80;2.47;;;23.50;46.90;;;;;;4166529;28;20049;-45
2021/09/03 08:25:06;;;;;;;4.07;3.30;;;23.50;46.90;;;;;;4166566;28;20105;-45
2021/09/03 08:27:08;;;;;;;4.38;2.60;;;23.50;46.90;;;;;;4166632;28;20049;-44
2021/09/03 08:29:10;;;;;;;3.47;2.55;;;23.50;47.00;;;;;;4166629;28;20041;-45
2021/09/03 08:31:12;;;;;;;4.35;2.50;;;23.50;46.90;;;;;;4166164;28;20052;-50
2021/09/03 08:33:14;;;;;;;3.35;2.45;;;23.50;47.00;;;;;;4165902;28;20049;-51
2021/09/03 08:35:16;;;;;;;6.05;2.60;;;23.50;47.10;;;;;;4165728;28;20077;-51
2021/09/03 08:37:18;;;;;;;2.95;2.30;;;23.50;47.10;;;;;;4165748;28;20073;-52
2021/09/03 08:39:20;;;;;;;6.07;3.35;;;23.50;47.10;;;;;;4165788;28;20105;-52
2021/09/03 08:41:24;;;;;;;3.38;2.38;;;23.50;47.30;;;;;;4165859;28;20144;-51
2021/09/03 08:43:26;;;;;;;3.30;2.20;;;23.50;47.00;;;;;;4165678;28;20101;-52
2021/09/03 08:45:28;;;;;;;3.45;2.55;;;23.50;47.00;;;;;;4164775;28;20099;-49
2021/09/03 08:47:32;;;;;;;3.60;2.88;;;23.50;47.00;;;;;;4165351;28;20058;-51
2021/09/03 08:49:34;;;;;;;3.92;2.60;;;23.50;47.10;;;;;;4165519;28;20041;-54
2021/09/03 08:51:37;;;;;;;4.22;2.65;;;23.50;47.10;;;;;;4165481;28;20123;-52
2021/09/03 08:53:39;;;;;;;4.75;2.83;;;23.50;47.20;;;;;;4165481;28;20052;-52
2021/09/03 08:55:44;;;;;;;6.25;2.58;;;23.50;47.20;;;;;;4165473;28;20129;-50
2021/09/03 08:57:46;;;;;;;2.65;2.42;;;23.50;47.30;;;;;;4165529;28;20081;-50
2021/09/03 08:59:48;;;;;;;5.70;2.90;;;23.50;47.30;;;;;;4165271;28;20050;-53
2021/09/03 09:02:11;;;;;;;7.55;2.63;;;23.50;47.30;;;;;;4165401;28;20044;-50
2021/09/03 09:04:14;;;;;;;4.40;2.65;;;23.50;47.40;;;;;;4165363;28;20124;-50
2021/09/03 09:06:25;;;;;;;3.63;2.95;;;23.50;47.30;;;;;;4165230;28;20491;-50
2021/09/03 09:08:29;;;;;;;5.50;3.20;;;23.50;47.40;;;;;;4165313;28;20046;-49
2021/09/03 09:10:31;;;;;;;5.35;2.88;;;23.50;47.50;;;;;;4165312;28;20128;-54
2021/09/03 09:12:33;;;;;;;3.53;2.75;;;23.50;47.40;;;;;;4165179;28;20102;-51
2021/09/03 09:15:14;;;;;;;3.50;2.33;;;23.50;47.50;;;;;;4165100;28;20042;-50
2021/09/03 09:17:28;;;;;;;3.85;2.75;;;23.50;47.40;;;;;;4165153;28;20058;-52
2021/09/03 09:19:45;;;;;;;3.75;2.50;;;23.50;47.40;;;;;;4165132;28;20105;-50
2021/09/03 09:21:50;;;;;;;6.45;2.85;;;23.50;47.40;;;;;;4165120;28;20121;-50
2021/09/03 09:24:09;;;;;;;5.45;3.38;;;23.50;47.50;;;;;;4165049;28;20384;-50
2021/09/03 09:26:12;;;;;;;3.88;2.40;;;23.50;47.60;;;;;;4164953;28;20098;-49
2021/09/03 09:28:21;;;;;;;3.92;2.65;;;23.50;47.80;;;;;;4165178;28;20101;-50
2021/09/03 09:30:26;;;;;;;4.57;3.00;;;23.50;47.60;;;;;;4164747;28;20052;-52
2021/09/03 09:32:29;;;;;;;5.53;2.53;;;23.50;47.70;;;;;;4165028;28;20042;-53
2021/09/03 09:34:35;;;;;;;2.90;2.35;;;23.50;47.70;;;;;;4165013;28;20046;-49
2021/09/03 09:36:38;;;;;;;5.65;3.38;;;23.50;47.70;;;;;;4164971;28;20048;-53
2021/09/03 09:38:40;;;;;;;3.97;2.50;;;23.50;47.70;;;;;;4164845;28;20046;-49
2021/09/03 09:40:57;;;;;;;3.53;2.45;;;23.50;47.70;;;;;;4164576;28;20101;-49
2021/09/03 09:42:59;;;;;;;4.82;2.58;;;23.50;47.70;;;;;;4164765;28;20049;-49
2021/09/03 09:45:16;;;;;;;3.25;2.67;;;23.50;47.90;;;;;;4164532;28;20050;-53
2021/09/03 09:47:20;;;;;;;3.17;2.35;;;23.50;49.30;;;;;;4164422;28;20038;-55
2021/09/03 09:49:24;;;;;;;3.67;2.65;;;23.50;47.90;;;;;;4164561;28;20073;-52
2021/09/03 09:51:38;;;;;;;3.33;2.25;;;23.50;48.20;;;;;;4164669;28;20046;-53
2021/09/03 09:53:40;;;;;;;3.35;2.60;;;23.50;48.00;;;;;;4164433;28;20048;-51
2021/09/03 09:55:44;;;;;;;4.88;2.67;;;23.50;47.90;;;;;;4164225;28;20046;-50
2021/09/03 09:57:50;;;;;;;2.67;2.40;;;23.50;48.10;;;;;;4163980;28;20052;-51
2021/09/03 09:59:52;;;;;;;4.18;2.80;;;23.50;48.00;;;;;;4164219;28;20295;-53
2021/09/03 10:01:57;;;;;;;2.97;2.50;;;23.50;48.10;;;;;;4164313;28;20148;-55
2021/09/03 10:04:06;;;;;;;4.15;3.08;;;23.50;47.90;;;;;;4163419;28;20091;-52
2021/09/03 10:06:09;;;;;;;5.18;3.35;;;23.50;47.90;;;;;;4164232;28;20046;-52
2021/09/03 10:08:13;;;;;;;3.70;2.60;;;23.50;48.00;;;;;;4164307;28;20073;-53
2021/09/03 10:10:15;;;;;;;9.10;3.08;;;23.50;47.90;;;;;;4164388;28;20049;-55
2021/09/03 10:12:17;;;;;;;2.95;2.60;;;23.50;47.90;;;;;;4164446;28;20120;-52
2021/09/03 10:14:23;;;;;;;4.10;2.75;;;23.50;48.00;;;;;;4164318;28;20080;-54
2021/09/03 10:16:25;;;;;;;3.20;2.80;;;23.50;48.00;;;;;;4164362;28;20076;-52
2021/09/03 10:18:27;;;;;;;5.78;2.72;;;23.50;48.10;;;;;;4164256;28;20076;-54
2021/09/03 10:20:29;;;;;;;3.70;2.30;;;23.50;48.00;;;;;;4164437;28;20125;-51
2021/09/03 10:22:42;;;;;;;5.50;2.85;;;23.50;48.20;;;;;;4165111;28;20105;-54
2021/09/03 10:24:45;;;;;;;4.60;2.90;;;23.50;48.30;;;;;;4165180;28;20050;-51
2021/09/03 10:26:48;;;;;;;3.83;2.70;;;23.50;48.00;;;;;;4164999;28;20042;-55
2021/09/03 10:29:22;;;;;;;3.55;2.80;;;23.50;48.10;;;;;;4165022;28;20038;-53
2021/09/03 10:31:24;;;;;;;3.28;2.50;;;23.50;48.10;;;;;;4165172;28;20046;-52
2021/09/03 10:33:34;;;;;;;2.95;2.22;;;23.50;48.10;;;;;;4165103;28;20077;-53
2021/09/03 10:35:36;;;;;;;3.20;2.38;;;23.50;48.10;;;;;;4165061;28;20042;-50
2021/09/03 10:37:38;;;;;;;4.15;2.90;;;23.50;48.20;;;;;;4165152;28;20037;-49
2021/09/03 10:39:53;;;;;;;5.82;2.90;;;23.50;48.20;;;;;;4165095;28;20097;-51
2021/09/03 10:41:55;;;;;;;3.70;2.67;;;23.50;48.30;;;;;;4165091;28;20077;-52